Time;durP1;ratioP1;P1;durP2;ratioP2;P2;SDS_P1;SDS_P2;PMS_P1;PMS_P2;Temp;Humidity;BMP_temperature;BMP_pressure;BME280_temperature;BME280_humidity;BME280_pressure;Samples;Min_cycle;Max_cycle;Signal;HPM_P1;HPM_P2
2021/06/21 00:00:32;;;;;;;8.05;3.03;;;;;;;22.92;53.37;98978.41;5073091;28;20048;-83
2021/06/21 00:03:01;;;;;;;7.15;3.50;;;;;;;22.88;53.42;98975.25;5073241;28;20044;-83
2021/06/21 00:05:29;;;;;;;4.63;3.13;;;;;;;22.87;53.21;98978.97;5054678;28;20057;-83
2021/06/21 00:07:56;;;;;;;6.55;3.13;;;;;;;22.85;52.98;98986.38;5055403;28;20139;-83
2021/06/21 00:10:25;;;;;;;6.70;3.70;;;;;;;22.81;53.51;98989.63;5055360;28;20052;-83
2021/06/21 00:12:52;;;;;;;8.02;3.25;;;;;;;22.78;53.15;98983.63;5055546;28;20461;-83
2021/06/21 00:15:21;;;;;;;6.28;3.47;;;;;;;22.71;53.12;98981.84;5055105;28;20045;-83
2021/06/21 00:17:49;;;;;;;5.68;3.55;;;;;;;22.64;52.97;98982.59;5055341;28;20052;-80
2021/06/21 00:20:18;;;;;;;9.75;3.80;;;;;;;22.56;53.32;98979.16;5055093;28;20054;-80
2021/06/21 00:22:45;;;;;;;8.68;4.13;;;;;;;22.48;53.19;98980.91;5055407;28;20507;-81
2021/06/21 00:25:14;;;;;;;4.82;3.83;;;;;;;22.39;53.13;98969.44;5055361;28;20055;-81
2021/06/21 00:27:41;;;;;;;8.13;4.28;;;;;;;22.34;53.20;98977.19;5073010;28;20054;-81
2021/06/21 00:30:11;;;;;;;8.18;4.40;;;;;;;22.26;53.39;98975.44;5055257;28;20389;-81
2021/06/21 00:32:39;;;;;;;5.97;3.92;;;;;;;22.21;53.66;98979.69;5055399;28;20056;-80
2021/06/21 00:35:07;;;;;;;7.93;4.90;;;;;;;22.15;53.50;98970.53;5054878;28;20072;-80
2021/06/21 00:37:34;;;;;;;7.78;4.43;;;;;;;22.07;53.65;98970.59;5055350;28;20075;-81
2021/06/21 00:40:03;;;;;;;6.90;4.65;;;;;;;22.02;53.55;98967.63;5054892;28;20055;-80
2021/06/21 00:42:32;;;;;;;7.53;4.50;;;;;;;21.95;54.19;98956.81;5055163;28;20485;-81
2021/06/21 00:44:59;;;;;;;5.95;4.63;;;;;;;21.92;54.07;98955.34;5071990;28;20059;-80
2021/06/21 00:47:26;;;;;;;7.47;4.82;;;;;;;21.90;54.11;98953.84;5054788;28;20054;-80
2021/06/21 00:49:53;;;;;;;7.93;4.95;;;;;;;21.89;53.98;98962.88;5055295;28;20060;-80
2021/06/21 00:52:21;;;;;;;8.88;4.85;;;;;;;21.86;54.01;98951.53;5054860;28;20056;-81
2021/06/21 00:54:59;;;;;;;6.95;4.47;;;;;;;21.85;54.11;98957.91;5054708;28;20066;-81
2021/06/21 00:57:34;;;;;;;6.70;4.63;;;;;;;21.80;54.50;98957.63;5055186;28;20067;-80
2021/06/21 01:00:31;;;;;;;6.32;4.78;;;;;;;21.74;54.63;98950.28;5054967;28;20086;-81
2021/06/21 01:03:03;;;;;;;8.18;5.15;;;;;;;21.74;54.00;98940.41;5027091;28;20057;-81
2021/06/21 01:05:34;;;;;;;6.25;4.55;;;;;;;21.69;53.92;98940.09;5034458;28;20051;-80
2021/06/21 01:08:04;;;;;;;7.35;5.38;;;;;;;21.64;54.28;98930.94;5067812;28;20144;-81
2021/06/21 01:10:39;;;;;;;10.35;5.50;;;;;;;21.57;54.41;98933.50;5067860;28;20049;-80
2021/06/21 01:13:12;;;;;;;6.82;5.63;;;;;;;21.50;54.59;98930.72;5050700;28;20057;-80
2021/06/21 01:16:22;;;;;;;6.78;5.28;;;;;;;21.40;54.19;98928.28;5052956;28;20049;-80
2021/06/21 01:19:31;;;;;;;7.15;5.20;;;;;;;21.33;54.66;98922.81;5035306;28;20489;-80
2021/06/21 01:22:30;;;;;;;5.97;4.63;;;;;;;21.29;54.64;98917.97;5034270;28;20049;-81
2021/06/21 01:25:08;;;;;;;6.32;4.78;;;;;;;21.22;54.80;98916.03;5055475;28;20512;-80
2021/06/21 01:28:37;;;;;;;10.63;5.18;;;;;;;21.15;54.73;98909.69;5058269;28;20397;-80
2021/06/21 01:31:16;;;;;;;7.38;5.32;;;;;;;21.10;54.89;98917.44;5021256;28;20055;-80
2021/06/21 01:33:44;;;;;;;7.13;5.03;;;;;;;21.09;54.87;98921.13;5058333;28;20477;-80
2021/06/21 01:36:13;;;;;;;7.85;5.18;;;;;;;21.03;55.17;98911.97;5058201;28;20051;-81
2021/06/21 01:38:45;;;;;;;6.35;4.38;;;;;;;20.99;55.53;98912.47;5058244;28;20092;-81
2021/06/21 01:41:21;;;;;;;6.90;4.67;;;;;;;20.94;55.96;98908.47;5058388;28;20131;-80
2021/06/21 01:43:50;;;;;;;6.07;4.43;;;;;;;20.94;55.52;98908.47;5075668;28;20493;-80
2021/06/21 01:46:20;;;;;;;8.85;4.57;;;;;;;20.93;55.52;98906.81;5075747;28;20491;-80
2021/06/21 01:48:57;;;;;;;7.85;5.00;;;;;;;20.89;56.24;98913.53;5058165;28;20090;-80
2021/06/21 01:51:25;;;;;;;8.52;5.00;;;;;;;20.90;55.20;98914.38;5058356;28;20385;-80
2021/06/21 01:53:56;;;;;;;7.90;5.10;;;;;;;20.86;55.99;98916.53;5058157;28;20070;-80
2021/06/21 01:56:25;;;;;;;6.50;4.95;;;;;;;20.84;55.63;98926.56;5057953;28;20048;-83
2021/06/21 01:58:53;;;;;;;8.90;5.30;;;;;;;20.83;56.24;98924.91;5053937;28;20044;-85
2021/06/21 02:01:23;;;;;;;8.63;5.50;;;;;;;20.80;56.26;98925.25;5054691;28;20057;-85
2021/06/21 02:03:53;;;;;;;8.23;5.05;;;;;;;20.82;56.37;98928.59;5054188;28;20060;-85
2021/06/21 02:06:26;;;;;;;7.05;5.78;;;;;;;20.81;56.45;98937.63;5054044;28;20045;-83
2021/06/21 02:08:54;;;;;;;;;;;;;;;20.80;55.34;98930.59;5054998;28;20124;-84
2021/06/21 02:11:21;;;;;;;7.63;4.95;;;;;;;20.87;55.65;98930.75;5054488;28;20341;-80
2021/06/21 02:13:49;;;;;;;7.30;5.65;;;;;;;20.84;56.16;98918.56;5053856;28;20053;-80
2021/06/21 02:16:18;;;;;;;8.93;5.80;;;;;;;20.82;56.43;98909.88;5057216;28;20057;-81
2021/06/21 02:18:48;;;;;;;8.45;6.45;;;;;;;20.80;56.79;98901.19;5057726;28;20439;-80
2021/06/21 02:21:22;;;;;;;7.57;5.45;;;;;;;20.78;56.96;98895.19;5075508;28;20059;-80
2021/06/21 02:23:51;;;;;;;8.50;5.30;;;;;;;20.80;56.52;98898.50;5057151;28;20056;-81
2021/06/21 02:26:27;;;;;;;8.57;5.68;;;;;;;;;;5056296;28;20056;-80
2021/06/21 02:29:00;;;;;;;9.20;5.70;;;;;;;20.73;56.89;98890.38;5056940;28;20532;-81
2021/06/21 02:31:29;;;;;;;10.18;5.88;;;;;;;20.72;56.60;98890.53;5057314;28;20143;-82
2021/06/21 02:33:56;;;;;;;9.40;5.78;;;;;;;20.70;56.29;98885.34;5053696;28;20500;-82
2021/06/21 02:36:24;;;;;;;6.60;5.80;;;;;;;20.65;56.42;98893.91;5054264;28;20077;-82
2021/06/21 02:38:51;;;;;;;8.48;5.60;;;;;;;20.62;56.41;98898.75;5053735;28;20063;-82
2021/06/21 02:41:18;;;;;;;6.65;5.35;;;;;;;20.55;56.42;98894.13;5053997;28;20056;-82
2021/06/21 02:43:49;;;;;;;7.53;5.60;;;;;;;20.48;57.25;98901.16;5054566;28;20052;-82
2021/06/21 02:46:16;;;;;;;7.05;5.35;;;;;;;20.43;56.79;98915.06;5053420;28;20044;-82
2021/06/21 02:48:46;;;;;;;7.03;5.53;;;;;;;20.36;57.32;98919.41;5053191;28;20053;-82
2021/06/21 02:51:17;;;;;;;6.90;5.05;;;;;;;20.31;57.34;98909.22;5056764;28;20052;-82
2021/06/21 02:53:57;;;;;;;6.88;5.50;;;;;;;20.25;57.56;98909.09;5074918;28;20063;-82
2021/06/21 02:56:36;;;;;;;6.28;5.13;;;;;;;20.22;57.86;98904.94;5075138;28;20429;-82
2021/06/21 02:59:10;;;;;;;7.55;5.40;;;;;;;20.19;58.05;98889.25;5056645;28;20048;-82
2021/06/21 03:01:43;;;;;;;6.75;5.47;;;;;;;20.17;57.69;98896.59;5057061;28;20401;-82
2021/06/21 03:04:12;;;;;;;6.22;5.35;;;;;;;20.15;57.60;98902.09;5056430;28;20057;-82
2021/06/21 03:06:42;;;;;;;7.18;5.35;;;;;;;20.12;57.39;98898.94;5036449;28;20520;-82
2021/06/21 03:09:09;;;;;;;8.40;5.93;;;;;;;20.07;57.32;98898.63;5054513;28;20059;-82
2021/06/21 03:11:43;;;;;;;7.03;6.15;;;;;;;20.00;58.54;98903.81;5054512;28;20048;-82
2021/06/21 03:14:12;;;;;;;9.20;6.78;;;;;;;19.99;57.76;98894.13;5036314;28;20053;-82
2021/06/21 03:16:41;;;;;;;10.38;6.85;;;;;;;19.97;57.85;98902.31;5036693;28;20469;-82
2021/06/21 03:19:12;;;;;;;8.95;7.75;;;;;;;19.94;58.46;98889.28;5036441;28;20059;-82
2021/06/21 03:21:44;;;;;;;8.80;6.85;;;;;;;19.92;58.85;98884.09;5048000;28;20055;-82
2021/06/21 03:24:14;;;;;;;7.72;6.95;;;;;;;19.95;58.12;98890.94;5055918;28;20067;-82
2021/06/21 03:26:43;;;;;;;10.77;7.75;;;;;;;19.92;58.60;98884.09;5055924;28;20055;-82
2021/06/21 03:29:16;;;;;;;9.45;7.72;;;;;;;19.91;59.23;98874.44;5056124;28;20070;-82
2021/06/21 03:31:44;;;;;;;;;;;;;;;19.91;57.69;98876.25;5056585;28;20526;-86
2021/06/21 03:34:13;;;;;;;11.02;9.00;;;;;;;19.93;58.04;98869.75;5055826;28;19920;-86
2021/06/21 03:36:40;;;;;;;9.48;8.13;;;;;;;19.91;57.92;98874.44;5055836;28;20055;-86
2021/06/21 03:39:11;;;;;;;13.32;10.00;;;;;;;19.89;58.55;98870.25;5053889;28;20056;-86
2021/06/21 03:41:38;;;;;;;10.52;9.18;;;;;;;19.86;58.25;98863.44;5073550;28;20052;-86
2021/06/21 03:44:05;;;;;;;9.88;8.30;;;;;;;19.85;58.55;98861.75;5055598;28;20048;-86
2021/06/21 03:46:34;;;;;;;9.82;8.82;;;;;;;19.82;59.20;98863.94;5055865;28;20045;-86
2021/06/21 03:49:01;;;;;;;10.23;8.80;;;;;;;19.79;58.60;98857.94;5055937;28;20051;-86
2021/06/21 03:51:28;;;;;;;9.27;8.32;;;;;;;19.76;58.84;98863.59;5055640;28;20056;-86
2021/06/21 03:53:58;;;;;;;9.93;8.93;;;;;;;19.70;59.52;98863.47;5055320;28;20045;-85
2021/06/21 03:56:24;;;;;;;8.75;7.70;;;;;;;19.67;58.82;98849.44;5055848;28;20052;-84
2021/06/21 03:58:51;;;;;;;9.15;7.88;;;;;;;19.63;59.23;98856.09;5055558;28;20064;-85
2021/06/21 04:01:18;;;;;;;8.60;7.35;;;;;;;19.61;59.23;98852.78;5055602;28;20064;-85
2021/06/21 04:03:45;;;;;;;8.10;6.88;;;;;;;19.59;59.05;98838.75;5055303;28;20063;-85
2021/06/21 04:06:15;;;;;;;7.85;7.05;;;;;;;19.56;59.90;98846.28;5055637;28;20523;-85
2021/06/21 04:08:42;;;;;;;6.95;6.28;;;;;;;19.53;59.13;98842.13;5055370;28;20048;-85
2021/06/21 04:11:09;;;;;;;7.30;6.30;;;;;;;19.49;59.45;98840.78;5051995;28;20408;-85
2021/06/21 04:13:37;;;;;;;6.47;5.97;;;;;;;19.44;59.83;98843.13;5051935;28;20080;-84
2021/06/21 04:16:04;;;;;;;7.13;5.65;;;;;;;19.40;59.65;98845.31;5052033;28;20059;-84
2021/06/21 04:18:57;;;;;;;6.38;5.78;;;;;;;19.33;60.68;98837.09;5052107;28;20501;-84
2021/06/21 04:21:24;;;;;;;5.53;5.03;;;;;;;19.37;59.82;98840.28;5051741;28;20542;-84
2021/06/21 04:28:57;;;;;;;6.13;5.20;;;;;;;19.31;60.10;98863.13;5050440;28;20045;-82
2021/06/21 04:31:50;;;;;;;5.40;4.72;;;;;;;19.25;60.57;98856.63;5037985;28;20049;-82
2021/06/21 04:34:17;;;;;;;5.20;4.80;;;;;;;19.24;59.92;98860.31;5035130;28;20057;-82
2021/06/21 04:39:13;;;;;;;5.00;4.47;;;;;;;19.21;60.25;98859.81;5269317;22;20427;-88
2021/06/21 04:41:40;;;;;;;5.65;5.00;;;;;;;19.21;60.49;98862.47;5111269;28;20619;-89
2021/06/21 04:44:07;;;;;;;4.60;4.20;;;;;;;19.20;60.15;98852.78;5105119;28;20044;-88
2021/06/21 04:46:34;;;;;;;5.80;4.43;;;;;;;19.18;60.55;98854.81;5092627;28;20089;-88
2021/06/21 04:49:01;;;;;;;4.63;4.22;;;;;;;19.17;60.63;98855.81;5091347;28;20116;-88
2021/06/21 04:51:31;;;;;;;4.50;4.10;;;;;;;19.16;60.66;98846.97;5093884;28;20083;-87
2021/06/21 04:53:58;;;;;;;4.53;4.22;;;;;;;19.16;60.67;98846.13;5092467;28;20059;-88
2021/06/21 04:56:25;;;;;;;3.85;3.53;;;;;;;19.14;60.68;98840.97;5092851;28;20109;-88
2021/06/21 04:58:52;;;;;;;4.43;3.90;;;;;;;19.13;60.72;98837.47;5091265;28;20497;-87
2021/06/21 05:01:18;;;;;;;3.88;3.58;;;;;;;19.12;61.01;98833.13;5091409;28;20048;-88
2021/06/21 05:03:45;;;;;;;3.60;3.28;;;;;;;19.14;61.03;98827.63;5091514;28;20052;-89
2021/06/21 05:06:12;;;;;;;3.97;3.33;;;;;;;19.15;60.83;98831.97;5091427;28;20075;-88
2021/06/21 05:08:40;;;;;;;3.53;3.25;;;;;;;19.16;60.67;98836.28;5091205;28;20474;-88
2021/06/21 05:11:07;;;;;;;3.72;3.38;;;;;;;19.18;60.47;98830.78;5092338;28;20071;-88
2021/06/21 05:13:33;;;;;;;3.97;3.38;;;;;;;19.19;60.88;98837.78;5092029;28;20053;-88
2021/06/21 05:16:00;;;;;;;3.55;3.13;;;;;;;19.18;61.00;98841.47;5091163;28;20058;-88
2021/06/21 05:18:27;;;;;;;3.97;3.28;;;;;;;19.18;60.76;98825.44;5091268;28;20048;-88
2021/06/21 05:20:53;;;;;;;3.28;2.95;;;;;;;19.17;60.88;98832.63;5090503;28;20446;-88
2021/06/21 05:23:20;;;;;;;3.25;2.95;;;;;;;19.16;60.76;98830.94;5091875;28;20060;-87
2021/06/21 05:25:47;;;;;;;2.90;2.65;;;;;;;19.16;61.00;98832.78;5091641;28;20055;-88
2021/06/21 05:28:13;;;;;;;2.70;2.50;;;;;;;19.14;60.99;98823.09;5090566;28;20052;-88
2021/06/21 05:30:41;;;;;;;3.78;2.30;;;;;;;19.12;61.12;98825.13;5091568;28;20063;-88
2021/06/21 05:33:07;;;;;;;2.55;2.20;;;;;;;19.13;61.17;98831.28;5091522;28;20509;-87
2021/06/21 05:35:34;;;;;;;2.13;2.03;;;;;;;19.13;60.86;98831.28;5090556;28;20060;-87
2021/06/21 05:38:00;;;;;;;2.47;2.28;;;;;;;19.11;61.39;98823.44;5090986;28;20059;-89
2021/06/21 05:40:27;;;;;;;2.65;2.45;;;;;;;19.12;61.25;98817.13;5089513;28;20489;-89
2021/06/21 05:42:54;;;;;;;2.03;1.92;;;;;;;19.13;61.27;98816.13;5089791;28;20429;-88
2021/06/21 05:45:21;;;;;;;2.90;2.17;;;;;;;19.13;61.07;98817.94;5089386;28;20060;-89
2021/06/21 05:47:48;;;;;;;2.13;2.03;;;;;;;19.09;61.09;98814.78;5090869;28;20040;-87
2021/06/21 05:50:15;;;;;;;1.92;1.83;;;;;;;19.07;61.15;98811.47;5091403;28;20059;-87
2021/06/21 05:52:42;;;;;;;3.15;2.00;;;;;;;19.07;61.33;98815.94;5091289;28;20047;-87
2021/06/21 05:55:09;;;;;;;2.20;2.03;;;;;;;19.06;61.42;98815.09;5092413;28;20054;-87
2021/06/21 05:57:36;;;;;;;1.83;1.73;;;;;;;19.09;61.58;98808.59;5091445;28;20048;-87
2021/06/21 06:00:05;;;;;;;2.10;1.90;;;;;;;19.09;61.62;98814.78;5090871;28;20536;-87
2021/06/21 06:02:42;;;;;;;2.13;1.92;;;;;;;19.13;61.49;98807.25;5092753;28;20048;-87
2021/06/21 06:05:09;;;;;;;2.00;1.90;;;;;;;19.14;61.46;98803.63;5093997;28;20493;-87
2021/06/21 06:07:35;;;;;;;1.90;1.80;;;;;;;19.14;61.36;98804.44;5094609;28;20055;-88
2021/06/21 06:10:04;;;;;;;3.47;1.60;;;;;;;19.12;61.24;98801.13;5094769;28;20531;-87
2021/06/21 06:12:31;;;;;;;1.52;1.42;;;;;;;19.11;61.49;98799.44;5095446;28;20056;-88
2021/06/21 06:14:58;;;;;;;1.98;1.83;;;;;;;19.11;61.42;98796.75;5093200;28;20051;-87
2021/06/21 06:17:24;;;;;;;1.70;1.55;;;;;;;19.10;61.59;98795.09;5094165;28;20060;-87
2021/06/21 06:19:51;;;;;;;3.40;1.60;;;;;;;19.12;61.61;98797.59;5092859;28;20060;-88
2021/06/21 06:22:18;;;;;;;1.23;1.10;;;;;;;19.11;61.46;98791.44;5094183;28;20055;-87
2021/06/21 06:24:45;;;;;;;1.25;1.17;;;;;;;19.12;61.39;98797.59;5094686;28;20052;-87
2021/06/21 06:27:12;;;;;;;1.35;1.20;;;;;;;19.10;61.15;98794.28;5092367;28;20048;-87
2021/06/21 06:29:39;;;;;;;1.48;1.13;;;;;;;19.08;61.40;98794.44;5093777;28;20058;-87
2021/06/21 06:32:06;;;;;;;1.30;1.20;;;;;;;19.07;61.59;98792.78;5094194;28;20044;-87
2021/06/21 06:34:34;;;;;;;1.20;1.13;;;;;;;19.07;61.48;98795.47;5094028;28;20055;-87
2021/06/21 06:37:00;;;;;;;0.95;0.93;;;;;;;19.07;61.51;98792.78;5093388;28;20110;-87
2021/06/21 06:39:27;;;;;;;1.30;1.20;;;;;;;19.05;61.60;98802.78;5094739;28;20056;-88
2021/06/21 06:41:53;;;;;;;1.25;1.15;;;;;;;19.06;61.68;98803.63;5093512;28;20497;-89
2021/06/21 06:44:20;;;;;;;2.40;1.08;;;;;;;19.05;61.71;98801.91;5094213;28;20522;-88
2021/06/21 06:46:47;;;;;;;1.27;1.17;;;;;;;19.02;61.49;98809.25;5093184;28;20048;-89
2021/06/21 06:49:14;;;;;;;1.00;1.00;;;;;;;19.01;61.36;98812.06;5094105;28;20497;-89
2021/06/21 06:51:50;;;;;;;1.00;1.00;;;;;;;18.98;61.45;98807.06;5093971;28;20056;-88
2021/06/21 06:56:59;;;;;;;1.38;1.27;;;;;;;18.94;61.47;98805.72;5092811;28;20068;-88
2021/06/21 06:59:33;;;;;;;1.40;1.30;;;;;;;18.88;62.39;98800.06;5091582;28;20052;-88
2021/06/21 07:02:03;;;;;;;1.25;1.15;;;;;;;18.91;61.98;98804.22;5091394;28;20095;-88
2021/06/21 07:04:35;;;;;;;2.03;1.50;;;;;;;18.92;61.93;98797.91;5093211;28;20101;-88
2021/06/21 07:07:03;;;;;;;1.70;1.55;;;;;;;18.92;61.75;98795.25;5091607;28;20047;-89
2021/06/21 07:09:30;;;;;;;1.60;1.50;;;;;;;18.92;61.84;98797.06;5091775;28;20139;-89
2021/06/21 07:11:57;;;;;;;1.60;1.50;;;;;;;18.89;61.97;98799.06;5092590;28;20413;-88
2021/06/21 07:14:24;;;;;;;1.75;1.65;;;;;;;18.91;61.96;98793.56;5092044;28;20052;-88
2021/06/21 07:16:51;;;;;;;1.50;1.40;;;;;;;18.89;62.15;98799.06;5092617;28;20063;-88
2021/06/21 07:19:18;;;;;;;1.55;1.40;;;;;;;18.91;62.36;98801.56;5093712;28;20056;-87
2021/06/21 07:21:47;;;;;;;1.65;1.55;;;;;;;18.93;62.37;98796.91;5093527;28;20059;-88
2021/06/21 07:24:15;;;;;;;2.88;2.10;;;;;;;18.98;62.46;98799.06;5092273;28;20401;-88
2021/06/21 07:26:43;;;;;;;3.50;1.40;;;;;;;19.01;62.45;98801.41;5092603;28;20051;-87
2021/06/21 07:29:10;;;;;;;2.08;1.90;;;;;;;19.03;62.39;98791.41;5093429;28;20059;-89
2021/06/21 07:31:37;;;;;;;2.10;1.90;;;;;;;19.07;62.39;98795.47;5093540;28;20116;-88
2021/06/21 07:34:05;;;;;;;2.50;2.20;;;;;;;19.11;62.61;98793.28;5091807;28;20554;-88
2021/06/21 07:36:32;;;;;;;2.25;2.08;;;;;;;19.14;62.59;98800.97;5093591;28;20117;-88
2021/06/21 07:38:59;;;;;;;2.80;1.85;;;;;;;19.17;62.67;98797.13;5093015;28;20051;-87
2021/06/21 07:41:26;;;;;;;1.77;1.67;;;;;;;19.19;62.54;98805.78;5092055;28;20058;-88
2021/06/21 07:43:52;;;;;;;2.00;1.90;;;;;;;19.21;62.32;98803.78;5091934;28;20109;-87
2021/06/21 07:46:19;;;;;;;1.80;1.70;;;;;;;19.23;62.57;98804.44;5091821;28;20044;-88
2021/06/21 07:48:46;;;;;;;2.25;2.05;;;;;;;19.24;62.48;98800.75;5093170;28;20048;-89
2021/06/21 07:51:14;;;;;;;1.92;1.83;;;;;;;19.24;62.39;98806.09;5093089;28;20059;-88
2021/06/21 07:53:43;;;;;;;2.20;2.10;;;;;;;19.24;62.77;98806.09;5091575;28;20130;-88
2021/06/21 07:56:13;;;;;;;3.72;2.10;;;;;;;19.26;63.08;98809.44;5092302;28;20467;-87
2021/06/21 07:58:41;;;;;;;1.42;1.30;;;;;;;19.27;62.97;98806.63;5092192;28;20044;-88
2021/06/21 08:01:12;;;;;;;1.55;1.30;;;;;;;19.29;63.26;98816.28;5091640;28;20060;-87
2021/06/21 08:03:40;;;;;;;1.00;1.00;;;;;;;19.32;62.74;98813.28;5091847;28;20056;-88
2021/06/21 08:06:10;;;;;;;0.82;0.82;;;;;;;19.34;62.85;98811.28;5091714;28;20056;-87
2021/06/21 08:08:41;;;;;;;1.00;1.00;;;;;;;19.35;63.07;98819.13;5091661;28;20387;-87
2021/06/21 08:11:09;;;;;;;0.90;0.90;;;;;;;19.36;63.14;98812.75;5091568;28;20097;-88
2021/06/21 08:13:36;;;;;;;1.45;0.88;;;;;;;19.37;63.14;98811.75;5092575;28;20101;-88
2021/06/21 08:16:03;;;;;;;1.77;1.10;;;;;;;19.38;62.71;98816.13;5092804;28;20052;-87
2021/06/21 08:18:30;;;;;;;1.10;1.00;;;;;;;19.43;62.79;98822.78;5091592;28;20056;-87
2021/06/21 08:20:58;;;;;;;0.98;0.98;;;;;;;19.43;62.95;98817.44;5092871;28;20056;-87
2021/06/21 08:23:25;;;;;;;1.20;1.10;;;;;;;19.44;63.03;98809.25;5092594;28;20048;-88
2021/06/21 08:25:51;;;;;;;1.17;1.08;;;;;;;19.47;62.75;98821.44;5090710;28;20051;-87
2021/06/21 08:28:18;;;;;;;1.02;1.00;;;;;;;19.49;62.85;98819.44;5090968;28;20052;-88
2021/06/21 08:30:47;;;;;;;1.25;1.25;;;;;;;19.48;62.64;98831.13;5091400;28;20101;-89
2021/06/21 08:33:15;;;;;;;1.10;1.00;;;;;;;19.49;62.61;98820.28;5092399;28;20048;-89
2021/06/21 08:35:42;;;;;;;1.20;1.20;;;;;;;19.49;63.00;98825.63;5091245;28;20059;-88
2021/06/21 08:38:09;;;;;;;1.05;1.05;;;;;;;19.51;62.83;98833.47;5091441;28;20414;-88
2021/06/21 08:40:35;;;;;;;1.88;1.20;;;;;;;19.53;62.87;98826.09;5091080;28;20052;-88
2021/06/21 08:43:03;;;;;;;1.33;1.23;;;;;;;19.55;62.84;98824.06;5092097;28;20055;-90
2021/06/21 08:45:32;;;;;;;1.52;1.42;;;;;;;19.58;62.98;98831.75;5091967;28;20496;-89
2021/06/21 08:47:59;;;;;;;1.40;1.30;;;;;;;19.62;62.96;98827.75;5091309;28;20044;-87
2021/06/21 08:50:27;;;;;;;1.42;1.33;;;;;;;19.65;63.22;98835.44;5092472;28;20535;-88
2021/06/21 08:52:55;;;;;;;1.38;1.27;;;;;;;19.70;62.74;98836.75;5092261;28;20063;-88
2021/06/21 08:55:22;;;;;;;1.50;1.40;;;;;;;19.72;62.63;98837.41;5092036;28;20052;-87
2021/06/21 08:57:49;;;;;;;1.42;1.30;;;;;;;19.76;62.56;98833.38;5091023;28;20052;-88
2021/06/21 09:00:18;;;;;;;1.60;1.50;;;;;;;19.76;62.45;98831.56;5092120;28;20049;-88
2021/06/21 09:02:49;;;;;;;1.70;1.60;;;;;;;19.75;62.56;98837.91;5091889;28;20052;-89
2021/06/21 09:05:17;;;;;;;1.52;1.42;;;;;;;19.78;61.87;98837.56;5092156;28;20079;-88
2021/06/21 09:07:58;;;;;;;1.80;1.70;;;;;;;19.78;62.19;98839.41;5091120;28;20044;-89
2021/06/21 09:10:27;;;;;;;1.80;1.70;;;;;;;19.78;61.91;98839.41;5091117;28;20409;-89
2021/06/21 09:13:14;;;;;;;1.88;1.77;;;;;;;19.73;62.08;98842.56;5090636;28;20048;-89
2021/06/21 09:15:43;;;;;;;1.98;1.88;;;;;;;19.74;61.77;98838.91;5090514;28;20048;-89
2021/06/21 09:18:35;;;;;;;1.58;1.48;;;;;;;19.71;62.42;98838.41;5106573;28;20052;-88
2021/06/21 09:21:29;;;;;;;1.63;1.52;;;;;;;19.70;62.09;98844.75;5092373;28;20060;-88
2021/06/21 09:24:32;;;;;;;1.77;1.67;;;;;;;19.71;62.35;98843.75;5089763;28;20135;-89
2021/06/21 09:27:00;;;;;;;1.98;1.88;;;;;;;19.76;61.81;98844.91;5088599;28;20526;-88
2021/06/21 09:29:35;;;;;;;3.05;1.90;;;;;;;19.73;62.41;98841.75;5090734;28;20056;-88
2021/06/21 09:32:52;;;;;;;2.60;2.22;;;;;;;19.71;62.37;98847.28;5090648;28;20052;-88
2021/06/21 09:35:31;;;;;;;2.00;1.90;;;;;;;19.72;62.34;98843.59;5090651;28;20060;-87
2021/06/21 09:38:10;;;;;;;2.05;1.95;;;;;;;19.74;62.84;98840.75;5095201;28;20055;-89
2021/06/21 09:40:45;;;;;;;2.20;2.10;;;;;;;19.77;62.76;98840.38;5094761;28;20056;-88
2021/06/21 09:43:36;;;;;;;2.47;2.28;;;;;;;19.75;63.10;98840.59;5095133;28;20148;-89
2021/06/21 09:46:13;;;;;;;2.30;2.20;;;;;;;19.85;62.94;98836.88;5094218;28;20062;-89
2021/06/21 09:48:43;;;;;;;3.45;2.30;;;;;;;19.90;63.18;98834.53;5095598;28;20055;-87
2021/06/21 09:51:17;;;;;;;2.55;2.25;;;;;;;19.94;63.09;98843.88;5094229;28;20109;-89
2021/06/21 09:53:59;;;;;;;2.83;2.55;;;;;;;19.98;63.09;98844.34;5095113;28;20086;-88
2021/06/21 09:56:50;;;;;;;2.97;2.75;;;;;;;20.01;63.17;98847.56;5093663;28;20493;-89
2021/06/21 09:59:17;;;;;;;2.92;2.70;;;;;;;20.10;62.48;98843.00;5085569;28;20052;-88
2021/06/21 10:01:44;;;;;;;3.20;3.00;;;;;;;20.11;62.44;98855.38;5094159;28;20079;-89
2021/06/21 10:04:24;;;;;;;2.90;2.70;;;;;;;20.09;62.50;98852.03;5094834;28;20052;-88
2021/06/21 10:06:51;;;;;;;2.88;2.67;;;;;;;20.14;62.02;98851.50;5093963;28;20070;-88
2021/06/21 10:09:17;;;;;;;2.85;2.65;;;;;;;20.14;62.21;98855.03;5093651;28;20047;-89
2021/06/21 10:11:45;;;;;;;2.72;2.53;;;;;;;20.16;62.11;98855.69;5093501;28;20085;-89
2021/06/21 10:14:15;;;;;;;2.90;2.70;;;;;;;20.17;62.44;98865.38;5094940;28;20048;-88
2021/06/21 10:16:49;;;;;;;3.70;2.50;;;;;;;20.21;62.52;98859.66;5094794;28;20052;-88
2021/06/21 10:19:20;;;;;;;2.60;2.40;;;;;;;20.23;62.62;98857.69;5094008;28;20089;-89
2021/06/21 10:21:55;;;;;;;2.83;2.63;;;;;;;20.28;62.49;98863.31;5093857;28;20055;-90
2021/06/21 10:24:30;;;;;;;2.78;2.58;;;;;;;20.32;61.99;98861.97;5075506;28;20052;-90
2021/06/21 10:27:00;;;;;;;3.28;3.03;;;;;;;20.33;62.09;98868.97;5073650;28;20063;-88
2021/06/21 10:29:27;;;;;;;3.28;3.08;;;;;;;20.33;61.70;98871.66;5073200;28;20048;-89
2021/06/21 10:31:55;;;;;;;3.03;2.80;;;;;;;20.33;61.82;98877.00;5093309;28;20058;-89
2021/06/21 10:34:23;;;;;;;2.83;2.63;;;;;;;20.32;61.55;98878.00;5093404;28;20048;-88
2021/06/21 10:36:53;;;;;;;3.17;2.97;;;;;;;20.27;61.96;98875.88;5095243;28;20500;-88
2021/06/21 10:39:27;;;;;;;3.45;2.70;;;;;;;20.26;61.81;98878.72;5091941;28;20436;-87
2021/06/21 10:42:07;;;;;;;2.97;2.67;;;;;;;20.22;62.02;98888.88;5093458;28;20071;-90
2021/06/21 10:44:40;;;;;;;3.17;2.97;;;;;;;20.21;61.90;98884.56;5093819;28;20047;-90
2021/06/21 10:47:26;;;;;;;3.45;3.15;;;;;;;20.17;62.36;98889.44;5094442;28;20052;-90
2021/06/21 10:49:54;;;;;;;3.53;3.22;;;;;;;20.21;61.79;98889.91;5094056;28;20048;-88
2021/06/21 10:52:36;;;;;;;2.97;2.78;;;;;;;20.14;62.29;98884.41;5092394;28;20067;-88
2021/06/21 10:55:24;;;;;;;3.20;3.00;;;;;;;20.13;62.15;98897.94;5092681;28;20070;-88
2021/06/21 10:58:01;;;;;;;3.22;3.03;;;;;;;20.13;61.87;98900.59;5093037;28;20052;-87
2021/06/21 11:00:39;;;;;;;3.28;3.08;;;;;;;20.11;62.29;98903.44;5093474;28;20390;-88
2021/06/21 11:03:33;;;;;;;2.92;2.72;;;;;;;20.11;62.59;98903.44;5094319;28;20048;-90
2021/06/21 11:06:04;;;;;;;3.40;3.10;;;;;;;20.15;62.09;98915.47;5077342;28;20414;-91
2021/06/21 11:08:48;;;;;;;3.33;3.03;;;;;;;20.11;62.39;98913.31;5072339;28;20048;-89
2021/06/21 11:11:33;;;;;;;3.63;3.08;;;;;;;20.11;62.46;98910.66;5072348;28;20394;-89
2021/06/21 11:14:21;;;;;;;3.20;3.00;;;;;;;20.11;62.63;98906.13;5072204;28;20053;-90
2021/06/21 11:16:51;;;;;;;3.38;3.17;;;;;;;20.16;62.39;98911.81;5074329;28;20490;-88
2021/06/21 11:19:26;;;;;;;3.58;3.33;;;;;;;20.15;62.23;98915.47;5072024;28;20052;-89
2021/06/21 11:21:58;;;;;;;3.78;3.45;;;;;;;20.18;62.12;98909.78;5074505;28;20090;-89
2021/06/21 11:24:43;;;;;;;4.72;3.63;;;;;;;20.16;62.61;98905.63;5073562;28;20052;-88
2021/06/21 11:27:16;;;;;;;4.07;3.78;;;;;;;20.19;62.49;98907.97;5072658;28;20083;-88
2021/06/21 11:29:45;;;;;;;5.78;4.22;;;;;;;20.23;62.63;98898.59;5072215;28;20044;-88
2021/06/21 11:32:14;;;;;;;4.05;3.60;;;;;;;20.26;62.37;98908.91;5072150;28;20125;-90
2021/06/21 11:34:47;;;;;;;4.35;4.05;;;;;;;20.29;62.87;98905.06;5073228;28;20052;-88
2021/06/21 11:37:39;;;;;;;4.10;3.80;;;;;;;20.31;62.80;98913.75;5071848;28;20052;-89
2021/06/21 11:40:12;;;;;;;4.43;3.58;;;;;;;20.36;62.39;98922.09;5072996;28;20060;-88
2021/06/21 11:42:40;;;;;;;4.55;4.15;;;;;;;20.42;62.03;98932.09;5073091;28;20079;-87
2021/06/21 11:45:08;;;;;;;4.53;4.22;;;;;;;20.44;62.22;98929.25;5071315;28;20109;-90
2021/06/21 11:47:36;;;;;;;4.97;4.57;;;;;;;20.44;62.25;98927.41;5072031;28;20056;-88
2021/06/21 11:50:15;;;;;;;4.72;4.32;;;;;;;20.41;62.59;98935.78;5071570;28;20048;-88
2021/06/21 11:52:46;;;;;;;4.32;3.92;;;;;;;20.44;62.27;98943.44;5071682;28;20066;-88
2021/06/21 11:55:16;;;;;;;4.63;4.03;;;;;;;20.44;62.10;98943.44;5071300;28;20078;-88
2021/06/21 11:57:50;;;;;;;4.13;3.83;;;;;;;20.41;62.25;98954.47;5073007;28;20071;-88
2021/06/21 12:00:29;;;;;;;3.90;3.60;;;;;;;20.43;62.21;98957.84;5070814;28;20406;-87
2021/06/21 12:03:06;;;;;;;4.03;3.72;;;;;;;20.41;62.28;98953.66;5071661;28;20079;-87